sensor_id;sensor_type;location;lat;lon;timestamp;P1;durP1;ratioP1;P2;durP2;ratioP2
21899;SDS011;11114;50.658;12.704;2022-07-23T00:00:17;15.05;;;13.88;;
21899;SDS011;11114;50.658;12.704;2022-07-23T00:02:44;14.65;;;13.60;;
21899;SDS011;11114;50.658;12.704;2022-07-23T00:05:11;15.00;;;13.82;;
21899;SDS011;11114;50.658;12.704;2022-07-23T00:07:38;15.75;;;14.40;;
21899;SDS011;11114;50.658;12.704;2022-07-23T00:10:05;15.93;;;14.40;;
21899;SDS011;11114;50.658;12.704;2022-07-23T00:12:32;15.57;;;14.30;;
21899;SDS011;11114;50.658;12.704;2022-07-23T00:14:59;15.32;;;14.13;;
21899;SDS011;11114;50.658;12.704;2022-07-23T00:17:26;15.15;;;14.00;;
21899;SDS011;11114;50.658;12.704;2022-07-23T00:19:53;15.98;;;14.65;;
21899;SDS011;11114;50.658;12.704;2022-07-23T00:22:20;16.48;;;15.07;;
21899;SDS011;11114;50.658;12.704;2022-07-23T00:24:47;15.50;;;14.40;;
21899;SDS011;11114;50.658;12.704;2022-07-23T00:27:34;15.80;;;14.50;;
21899;SDS011;11114;50.658;12.704;2022-07-23T00:30:00;16.23;;;14.93;;
21899;SDS011;11114;50.658;12.704;2022-07-23T00:32:27;16.60;;;15.20;;
21899;SDS011;11114;50.658;12.704;2022-07-23T00:35:14;17.17;;;15.88;;
21899;SDS011;11114;50.658;12.704;2022-07-23T00:37:41;16.40;;;15.07;;
21899;SDS011;11114;50.658;12.704;2022-07-23T00:40:09;16.20;;;14.93;;
21899;SDS011;11114;50.658;12.704;2022-07-23T00:42:37;16.25;;;15.05;;
21899;SDS011;11114;50.658;12.704;2022-07-23T00:45:04;15.80;;;14.60;;
21899;SDS011;11114;50.658;12.704;2022-07-23T00:47:32;16.35;;;15.15;;
21899;SDS011;11114;50.658;12.704;2022-07-23T00:49:59;15.68;;;14.57;;
21899;SDS011;11114;50.658;12.704;2022-07-23T00:52:26;16.50;;;15.30;;
21899;SDS011;11114;50.658;12.704;2022-07-23T00:54:53;16.30;;;15.00;;
21899;SDS011;11114;50.658;12.704;2022-07-23T00:57:20;16.42;;;14.65;;
21899;SDS011;11114;50.658;12.704;2022-07-23T00:59:54;16.63;;;15.32;;
21899;SDS011;11114;50.658;12.704;2022-07-23T01:02:20;16.13;;;14.82;;
21899;SDS011;11114;50.658;12.704;2022-07-23T01:04:47;16.52;;;15.23;;
21899;SDS011;11114;50.658;12.704;2022-07-23T01:07:15;15.90;;;14.73;;
21899;SDS011;11114;50.658;12.704;2022-07-23T01:09:42;15.82;;;14.73;;
21899;SDS011;11114;50.658;12.704;2022-07-23T01:12:10;15.60;;;14.50;;
21899;SDS011;11114;50.658;12.704;2022-07-23T01:14:37;15.60;;;14.35;;
21899;SDS011;11114;50.658;12.704;2022-07-23T01:17:04;16.33;;;14.95;;
21899;SDS011;11114;50.658;12.704;2022-07-23T01:19:31;15.90;;;14.70;;
21899;SDS011;11114;50.658;12.704;2022-07-23T01:21:58;16.20;;;15.00;;
21899;SDS011;11114;50.658;12.704;2022-07-23T01:24:30;17.25;;;15.45;;
21899;SDS011;11114;50.658;12.704;2022-07-23T01:27:03;16.92;;;15.40;;
21899;SDS011;11114;50.658;12.704;2022-07-23T01:29:35;16.48;;;14.98;;
21899;SDS011;11114;50.658;12.704;2022-07-23T01:32:06;15.93;;;14.73;;
21899;SDS011;11114;50.658;12.704;2022-07-23T01:34:33;16.15;;;14.88;;
21899;SDS011;11114;50.658;12.704;2022-07-23T01:37:00;16.13;;;14.93;;
21899;SDS011;11114;50.658;12.704;2022-07-23T01:39:28;16.25;;;15.00;;
21899;SDS011;11114;50.658;12.704;2022-07-23T01:41:55;16.45;;;15.25;;
21899;SDS011;11114;50.658;12.704;2022-07-23T01:44:23;16.65;;;15.38;;
21899;SDS011;11114;50.658;12.704;2022-07-23T01:46:50;17.33;;;15.88;;
21899;SDS011;11114;50.658;12.704;2022-07-23T01:49:19;17.27;;;15.98;;
21899;SDS011;11114;50.658;12.704;2022-07-23T01:51:57;17.02;;;15.82;;
21899;SDS011;11114;50.658;12.704;2022-07-23T01:54:39;16.73;;;15.43;;
21899;SDS011;11114;50.658;12.704;2022-07-23T01:57:07;17.33;;;15.93;;
21899;SDS011;11114;50.658;12.704;2022-07-23T01:59:35;17.05;;;15.75;;
21899;SDS011;11114;50.658;12.704;2022-07-23T02:02:03;16.70;;;15.02;;
21899;SDS011;11114;50.658;12.704;2022-07-23T02:04:30;17.05;;;15.35;;
21899;SDS011;11114;50.658;12.704;2022-07-23T02:06:59;16.13;;;14.82;;
21899;SDS011;11114;50.658;12.704;2022-07-23T02:09:26;16.40;;;15.00;;
21899;SDS011;11114;50.658;12.704;2022-07-23T02:11:53;16.65;;;15.38;;
21899;SDS011;11114;50.658;12.704;2022-07-23T02:14:20;15.85;;;14.70;;
21899;SDS011;11114;50.658;12.704;2022-07-23T02:16:50;16.02;;;14.80;;
21899;SDS011;11114;50.658;12.704;2022-07-23T02:19:17;17.08;;;15.50;;
21899;SDS011;11114;50.658;12.704;2022-07-23T02:21:44;16.95;;;15.65;;
21899;SDS011;11114;50.658;12.704;2022-07-23T02:24:11;16.80;;;15.50;;
21899;SDS011;11114;50.658;12.704;2022-07-23T02:26:40;16.52;;;15.32;;
21899;SDS011;11114;50.658;12.704;2022-07-23T02:29:08;16.90;;;15.43;;
21899;SDS011;11114;50.658;12.704;2022-07-23T02:31:35;15.65;;;14.55;;
21899;SDS011;11114;50.658;12.704;2022-07-23T02:34:02;16.15;;;14.80;;
21899;SDS011;11114;50.658;12.704;2022-07-23T02:36:30;16.02;;;14.82;;
21899;SDS011;11114;50.658;12.704;2022-07-23T02:38:58;16.17;;;14.88;;
21899;SDS011;11114;50.658;12.704;2022-07-23T02:41:27;16.25;;;15.10;;
21899;SDS011;11114;50.658;12.704;2022-07-23T02:43:55;16.67;;;15.27;;
21899;SDS011;11114;50.658;12.704;2022-07-23T02:46:22;16.40;;;15.23;;
21899;SDS011;11114;50.658;12.704;2022-07-23T02:48:49;16.15;;;14.88;;
21899;SDS011;11114;50.658;12.704;2022-07-23T02:51:16;16.67;;;15.27;;
21899;SDS011;11114;50.658;12.704;2022-07-23T02:53:50;17.05;;;15.30;;
21899;SDS011;11114;50.658;12.704;2022-07-23T02:56:17;17.27;;;15.98;;
21899;SDS011;11114;50.658;12.704;2022-07-23T02:58:43;17.15;;;15.55;;
21899;SDS011;11114;50.658;12.704;2022-07-23T03:01:11;16.25;;;15.05;;
21899;SDS011;11114;50.658;12.704;2022-07-23T03:03:38;16.33;;;15.02;;
21899;SDS011;11114;50.658;12.704;2022-07-23T03:06:05;16.85;;;15.55;;
21899;SDS011;11114;50.658;12.704;2022-07-23T03:08:37;17.58;;;15.98;;
21899;SDS011;11114;50.658;12.704;2022-07-23T03:11:03;17.08;;;15.77;;
21899;SDS011;11114;50.658;12.704;2022-07-23T03:13:31;16.80;;;15.40;;
21899;SDS011;11114;50.658;12.704;2022-07-23T03:16:01;16.30;;;15.10;;
21899;SDS011;11114;50.658;12.704;2022-07-23T03:18:28;16.80;;;15.52;;
21899;SDS011;11114;50.658;12.704;2022-07-23T03:20:54;16.85;;;15.55;;
21899;SDS011;11114;50.658;12.704;2022-07-23T03:23:21;16.58;;;15.40;;
21899;SDS011;11114;50.658;12.704;2022-07-23T03:25:48;16.73;;;15.43;;
21899;SDS011;11114;50.658;12.704;2022-07-23T03:28:21;16.98;;;15.60;;
21899;SDS011;11114;50.658;12.704;2022-07-23T03:30:47;17.35;;;15.85;;
21899;SDS011;11114;50.658;12.704;2022-07-23T03:33:18;17.50;;;16.20;;
21899;SDS011;11114;50.658;12.704;2022-07-23T03:35:46;18.10;;;16.70;;
21899;SDS011;11114;50.658;12.704;2022-07-23T03:38:24;17.63;;;16.33;;
21899;SDS011;11114;50.658;12.704;2022-07-23T03:40:52;18.00;;;16.60;;
21899;SDS011;11114;50.658;12.704;2022-07-23T03:43:19;18.33;;;17.00;;
21899;SDS011;11114;50.658;12.704;2022-07-23T03:45:46;18.08;;;16.73;;
21899;SDS011;11114;50.658;12.704;2022-07-23T03:48:13;18.55;;;17.15;;
21899;SDS011;11114;50.658;12.704;2022-07-23T03:50:40;19.02;;;17.35;;
21899;SDS011;11114;50.658;12.704;2022-07-23T03:53:07;17.75;;;16.42;;
21899;SDS011;11114;50.658;12.704;2022-07-23T03:55:34;17.88;;;16.48;;
21899;SDS011;11114;50.658;12.704;2022-07-23T03:58:01;18.15;;;16.58;;
21899;SDS011;11114;50.658;12.704;2022-07-23T04:00:27;18.83;;;17.35;;
21899;SDS011;11114;50.658;12.704;2022-07-23T04:02:54;18.73;;;17.08;;
21899;SDS011;11114;50.658;12.704;2022-07-23T04:05:21;18.88;;;17.38;;
21899;SDS011;11114;50.658;12.704;2022-07-23T04:10:19;18.63;;;17.23;;
21899;SDS011;11114;50.658;12.704;2022-07-23T04:12:46;18.67;;;17.00;;
21899;SDS011;11114;50.658;12.704;2022-07-23T04:15:12;18.90;;;17.30;;
21899;SDS011;11114;50.658;12.704;2022-07-23T04:17:39;20.02;;;18.20;;
21899;SDS011;11114;50.658;12.704;2022-07-23T04:20:06;19.27;;;17.70;;
21899;SDS011;11114;50.658;12.704;2022-07-23T04:22:40;18.17;;;16.80;;
21899;SDS011;11114;50.658;12.704;2022-07-23T04:25:07;19.90;;;18.17;;
21899;SDS011;11114;50.658;12.704;2022-07-23T04:27:35;18.70;;;17.02;;
21899;SDS011;11114;50.658;12.704;2022-07-23T04:30:02;19.00;;;17.40;;
21899;SDS011;11114;50.658;12.704;2022-07-23T04:32:29;18.63;;;17.27;;
21899;SDS011;11114;50.658;12.704;2022-07-23T04:34:56;20.25;;;18.65;;
21899;SDS011;11114;50.658;12.704;2022-07-23T04:37:23;19.65;;;17.80;;
21899;SDS011;11114;50.658;12.704;2022-07-23T04:39:50;20.25;;;18.75;;
21899;SDS011;11114;50.658;12.704;2022-07-23T04:42:16;19.75;;;18.15;;
21899;SDS011;11114;50.658;12.704;2022-07-23T04:44:43;20.45;;;18.85;;
21899;SDS011;11114;50.658;12.704;2022-07-23T04:47:12;20.23;;;18.70;;
21899;SDS011;11114;50.658;12.704;2022-07-23T04:49:41;19.95;;;18.45;;
21899;SDS011;11114;50.658;12.704;2022-07-23T04:52:08;21.40;;;19.80;;
21899;SDS011;11114;50.658;12.704;2022-07-23T04:54:35;21.50;;;19.92;;
21899;SDS011;11114;50.658;12.704;2022-07-23T04:57:02;21.35;;;19.63;;
21899;SDS011;11114;50.658;12.704;2022-07-23T04:59:30;21.10;;;19.52;;
21899;SDS011;11114;50.658;12.704;2022-07-23T05:02:01;20.25;;;18.73;;
21899;SDS011;11114;50.658;12.704;2022-07-23T05:04:29;20.65;;;18.95;;
21899;SDS011;11114;50.658;12.704;2022-07-23T05:06:57;21.35;;;19.42;;
21899;SDS011;11114;50.658;12.704;2022-07-23T05:09:24;21.25;;;19.52;;
21899;SDS011;11114;50.658;12.704;2022-07-23T05:11:51;20.77;;;18.83;;
21899;SDS011;11114;50.658;12.704;2022-07-23T05:14:19;20.35;;;18.65;;
21899;SDS011;11114;50.658;12.704;2022-07-23T05:16:47;21.60;;;19.67;;
21899;SDS011;11114;50.658;12.704;2022-07-23T05:19:19;23.88;;;21.98;;
21899;SDS011;11114;50.658;12.704;2022-07-23T05:21:51;23.55;;;21.48;;
21899;SDS011;11114;50.658;12.704;2022-07-23T05:24:17;22.05;;;20.35;;
21899;SDS011;11114;50.658;12.704;2022-07-23T05:26:44;21.15;;;19.42;;
21899;SDS011;11114;50.658;12.704;2022-07-23T05:29:12;21.00;;;19.30;;
21899;SDS011;11114;50.658;12.704;2022-07-23T05:31:39;20.98;;;19.27;;
21899;SDS011;11114;50.658;12.704;2022-07-23T05:34:06;21.75;;;20.05;;
21899;SDS011;11114;50.658;12.704;2022-07-23T05:36:35;20.60;;;19.00;;
21899;SDS011;11114;50.658;12.704;2022-07-23T05:39:03;20.55;;;18.98;;
21899;SDS011;11114;50.658;12.704;2022-07-23T05:41:35;21.13;;;19.52;;
21899;SDS011;11114;50.658;12.704;2022-07-23T05:44:03;22.00;;;20.30;;
21899;SDS011;11114;50.658;12.704;2022-07-23T05:46:36;25.17;;;22.80;;
21899;SDS011;11114;50.658;12.704;2022-07-23T05:49:06;21.20;;;19.50;;
21899;SDS011;11114;50.658;12.704;2022-07-23T05:51:51;21.33;;;19.67;;
21899;SDS011;11114;50.658;12.704;2022-07-23T05:54:27;20.65;;;19.08;;
21899;SDS011;11114;50.658;12.704;2022-07-23T05:56:54;20.73;;;19.23;;
21899;SDS011;11114;50.658;12.704;2022-07-23T05:59:21;21.80;;;19.90;;
21899;SDS011;11114;50.658;12.704;2022-07-23T06:01:48;20.50;;;18.95;;
21899;SDS011;11114;50.658;12.704;2022-07-23T06:04:15;20.17;;;18.58;;
21899;SDS011;11114;50.658;12.704;2022-07-23T06:06:52;21.17;;;19.58;;
21899;SDS011;11114;50.658;12.704;2022-07-23T06:09:20;21.65;;;19.63;;
21899;SDS011;11114;50.658;12.704;2022-07-23T06:11:48;21.30;;;19.60;;
21899;SDS011;11114;50.658;12.704;2022-07-23T06:14:15;21.35;;;19.75;;
21899;SDS011;11114;50.658;12.704;2022-07-23T06:16:54;21.23;;;19.30;;
21899;SDS011;11114;50.658;12.704;2022-07-23T06:19:23;19.45;;;17.92;;
21899;SDS011;11114;50.658;12.704;2022-07-23T06:21:50;20.40;;;18.70;;
21899;SDS011;11114;50.658;12.704;2022-07-23T06:24:17;21.33;;;19.65;;
21899;SDS011;11114;50.658;12.704;2022-07-23T06:26:44;20.75;;;19.15;;
21899;SDS011;11114;50.658;12.704;2022-07-23T06:29:11;20.80;;;18.90;;
21899;SDS011;11114;50.658;12.704;2022-07-23T06:31:38;21.15;;;19.33;;
21899;SDS011;11114;50.658;12.704;2022-07-23T06:34:05;21.48;;;19.70;;
21899;SDS011;11114;50.658;12.704;2022-07-23T06:36:34;22.27;;;20.50;;
21899;SDS011;11114;50.658;12.704;2022-07-23T06:39:01;21.08;;;19.48;;
21899;SDS011;11114;50.658;12.704;2022-07-23T06:41:29;21.83;;;19.92;;
21899;SDS011;11114;50.658;12.704;2022-07-23T06:43:56;21.15;;;19.35;;
21899;SDS011;11114;50.658;12.704;2022-07-23T06:46:23;21.30;;;19.60;;
21899;SDS011;11114;50.658;12.704;2022-07-23T06:48:51;20.27;;;18.67;;
21899;SDS011;11114;50.658;12.704;2022-07-23T06:51:18;20.60;;;18.67;;
21899;SDS011;11114;50.658;12.704;2022-07-23T06:53:45;20.40;;;18.65;;
21899;SDS011;11114;50.658;12.704;2022-07-23T06:56:12;20.58;;;18.98;;
21899;SDS011;11114;50.658;12.704;2022-07-23T06:58:39;20.90;;;19.05;;
21899;SDS011;11114;50.658;12.704;2022-07-23T07:01:06;21.33;;;19.73;;
21899;SDS011;11114;50.658;12.704;2022-07-23T07:03:33;22.27;;;20.40;;
21899;SDS011;11114;50.658;12.704;2022-07-23T07:06:00;21.60;;;19.88;;
21899;SDS011;11114;50.658;12.704;2022-07-23T07:08:28;21.38;;;19.67;;
21899;SDS011;11114;50.658;12.704;2022-07-23T07:10:56;21.80;;;20.10;;
21899;SDS011;11114;50.658;12.704;2022-07-23T07:13:23;22.58;;;20.50;;
21899;SDS011;11114;50.658;12.704;2022-07-23T07:15:50;22.05;;;20.33;;
21899;SDS011;11114;50.658;12.704;2022-07-23T07:18:17;23.55;;;21.50;;
21899;SDS011;11114;50.658;12.704;2022-07-23T07:20:44;22.45;;;20.45;;
21899;SDS011;11114;50.658;12.704;2022-07-23T07:23:12;24.42;;;22.27;;
21899;SDS011;11114;50.658;12.704;2022-07-23T07:25:42;23.67;;;21.35;;
21899;SDS011;11114;50.658;12.704;2022-07-23T07:28:08;25.77;;;23.52;;
21899;SDS011;11114;50.658;12.704;2022-07-23T07:30:35;28.08;;;25.38;;
21899;SDS011;11114;50.658;12.704;2022-07-23T07:33:02;24.85;;;22.65;;
21899;SDS011;11114;50.658;12.704;2022-07-23T07:35:28;27.00;;;24.50;;
21899;SDS011;11114;50.658;12.704;2022-07-23T07:37:55;26.83;;;24.33;;
21899;SDS011;11114;50.658;12.704;2022-07-23T07:40:22;24.77;;;22.58;;
21899;SDS011;11114;50.658;12.704;2022-07-23T07:42:50;23.00;;;21.15;;
21899;SDS011;11114;50.658;12.704;2022-07-23T07:45:22;22.85;;;20.95;;
21899;SDS011;11114;50.658;12.704;2022-07-23T07:47:51;22.40;;;20.60;;
21899;SDS011;11114;50.658;12.704;2022-07-23T07:50:19;25.13;;;22.92;;
21899;SDS011;11114;50.658;12.704;2022-07-23T07:52:47;23.80;;;21.70;;
21899;SDS011;11114;50.658;12.704;2022-07-23T07:55:14;25.25;;;23.08;;
21899;SDS011;11114;50.658;12.704;2022-07-23T07:57:43;24.60;;;22.40;;
21899;SDS011;11114;50.658;12.704;2022-07-23T08:00:15;25.63;;;23.40;;
21899;SDS011;11114;50.658;12.704;2022-07-23T08:02:52;25.25;;;23.17;;
21899;SDS011;11114;50.658;12.704;2022-07-23T08:05:24;23.60;;;21.60;;
21899;SDS011;11114;50.658;12.704;2022-07-23T08:07:57;24.67;;;22.42;;
21899;SDS011;11114;50.658;12.704;2022-07-23T08:10:25;22.73;;;20.75;;
21899;SDS011;11114;50.658;12.704;2022-07-23T08:12:54;22.98;;;21.13;;
21899;SDS011;11114;50.658;12.704;2022-07-23T08:15:23;23.38;;;21.33;;
21899;SDS011;11114;50.658;12.704;2022-07-23T08:17:52;23.80;;;21.70;;
21899;SDS011;11114;50.658;12.704;2022-07-23T08:20:20;26.08;;;23.88;;
21899;SDS011;11114;50.658;12.704;2022-07-23T08:22:58;22.75;;;20.90;;
21899;SDS011;11114;50.658;12.704;2022-07-23T08:25:33;22.15;;;20.27;;
21899;SDS011;11114;50.658;12.704;2022-07-23T08:28:02;23.27;;;21.02;;
21899;SDS011;11114;50.658;12.704;2022-07-23T08:30:31;24.17;;;21.40;;
21899;SDS011;11114;50.658;12.704;2022-07-23T08:33:03;21.85;;;19.95;;
21899;SDS011;11114;50.658;12.704;2022-07-23T08:35:32;21.63;;;19.83;;
21899;SDS011;11114;50.658;12.704;2022-07-23T08:38:02;19.73;;;18.08;;
21899;SDS011;11114;50.658;12.704;2022-07-23T08:40:31;20.42;;;18.73;;
21899;SDS011;11114;50.658;12.704;2022-07-23T08:43:00;20.98;;;19.23;;
21899;SDS011;11114;50.658;12.704;2022-07-23T08:45:32;19.35;;;17.58;;
21899;SDS011;11114;50.658;12.704;2022-07-23T08:48:02;21.42;;;19.52;;
21899;SDS011;11114;50.658;12.704;2022-07-23T08:50:32;22.00;;;20.05;;
21899;SDS011;11114;50.658;12.704;2022-07-23T08:53:05;21.35;;;19.58;;
21899;SDS011;11114;50.658;12.704;2022-07-23T08:55:33;20.58;;;18.90;;
21899;SDS011;11114;50.658;12.704;2022-07-23T08:58:01;20.20;;;18.35;;
21899;SDS011;11114;50.658;12.704;2022-07-23T09:00:28;19.65;;;17.75;;
21899;SDS011;11114;50.658;12.704;2022-07-23T09:02:55;20.40;;;18.60;;
21899;SDS011;11114;50.658;12.704;2022-07-23T09:05:22;21.15;;;19.23;;
21899;SDS011;11114;50.658;12.704;2022-07-23T09:08:10;21.92;;;20.05;;
21899;SDS011;11114;50.658;12.704;2022-07-23T09:10:43;20.33;;;18.77;;
21899;SDS011;11114;50.658;12.704;2022-07-23T09:13:56;21.73;;;19.73;;
21899;SDS011;11114;50.658;12.704;2022-07-23T09:16:08;21.73;;;20.02;;
21899;SDS011;11114;50.658;12.704;2022-07-23T09:18:44;21.63;;;19.38;;
21899;SDS011;11114;50.658;12.704;2022-07-23T09:21:25;21.90;;;20.02;;
21899;SDS011;11114;50.658;12.704;2022-07-23T09:28:59;49.67;;;21.92;;
21899;SDS011;11114;50.658;12.704;2022-07-23T09:31:32;21.45;;;19.50;;
21899;SDS011;11114;50.658;12.704;2022-07-23T09:34:06;20.33;;;18.52;;
21899;SDS011;11114;50.658;12.704;2022-07-23T09:36:35;20.30;;;18.50;;
21899;SDS011;11114;50.658;12.704;2022-07-23T09:39:02;19.23;;;17.75;;
21899;SDS011;11114;50.658;12.704;2022-07-23T09:41:40;20.02;;;18.10;;
21899;SDS011;11114;50.658;12.704;2022-07-23T09:44:09;22.35;;;20.08;;
21899;SDS011;11114;50.658;12.704;2022-07-23T09:46:38;21.97;;;20.23;;
21899;SDS011;11114;50.658;12.704;2022-07-23T09:49:19;23.05;;;19.85;;
21899;SDS011;11114;50.658;12.704;2022-07-23T09:51:48;23.08;;;21.17;;
21899;SDS011;11114;50.658;12.704;2022-07-23T09:54:21;20.58;;;18.88;;
21899;SDS011;11114;50.658;12.704;2022-07-23T09:56:55;20.52;;;18.92;;
21899;SDS011;11114;50.658;12.704;2022-07-23T09:59:27;20.42;;;18.83;;
21899;SDS011;11114;50.658;12.704;2022-07-23T10:01:57;19.90;;;18.40;;
21899;SDS011;11114;50.658;12.704;2022-07-23T10:04:28;22.33;;;19.00;;
21899;SDS011;11114;50.658;12.704;2022-07-23T10:07:39;20.25;;;18.55;;
21899;SDS011;11114;50.658;12.704;2022-07-23T10:10:35;21.42;;;19.55;;
21899;SDS011;11114;50.658;12.704;2022-07-23T10:13:21;43.00;;;21.25;;
21899;SDS011;11114;50.658;12.704;2022-07-23T10:16:08;27.73;;;19.25;;
21899;SDS011;11114;50.658;12.704;2022-07-23T10:18:35;22.15;;;19.08;;
21899;SDS011;11114;50.658;12.704;2022-07-23T10:21:09;21.33;;;19.42;;
21899;SDS011;11114;50.658;12.704;2022-07-23T10:23:42;20.38;;;18.38;;
21899;SDS011;11114;50.658;12.704;2022-07-23T10:26:18;21.00;;;18.98;;
21899;SDS011;11114;50.658;12.704;2022-07-23T10:29:18;21.00;;;19.30;;
21899;SDS011;11114;50.658;12.704;2022-07-23T10:32:08;25.63;;;21.60;;
21899;SDS011;11114;50.658;12.704;2022-07-23T10:34:48;21.13;;;19.50;;
21899;SDS011;11114;50.658;12.704;2022-07-23T10:37:28;23.42;;;21.25;;
21899;SDS011;11114;50.658;12.704;2022-07-23T10:40:12;22.15;;;20.20;;
21899;SDS011;11114;50.658;12.704;2022-07-23T10:42:45;20.40;;;18.83;;
21899;SDS011;11114;50.658;12.704;2022-07-23T10:47:53;19.88;;;18.25;;
21899;SDS011;11114;50.658;12.704;2022-07-23T10:50:25;20.15;;;18.45;;
21899;SDS011;11114;50.658;12.704;2022-07-23T10:53:13;20.95;;;19.15;;
21899;SDS011;11114;50.658;12.704;2022-07-23T10:55:45;25.15;;;20.50;;
21899;SDS011;11114;50.658;12.704;2022-07-23T10:58:17;22.15;;;19.10;;
21899;SDS011;11114;50.658;12.704;2022-07-23T11:00:47;20.88;;;19.05;;
21899;SDS011;11114;50.658;12.704;2022-07-23T11:03:36;20.88;;;19.08;;
21899;SDS011;11114;50.658;12.704;2022-07-23T11:06:04;20.80;;;19.15;;
21899;SDS011;11114;50.658;12.704;2022-07-23T11:08:31;20.20;;;18.50;;
21899;SDS011;11114;50.658;12.704;2022-07-23T11:13:30;20.70;;;18.80;;
21899;SDS011;11114;50.658;12.704;2022-07-23T11:16:18;21.98;;;19.95;;
21899;SDS011;11114;50.658;12.704;2022-07-23T11:32:22;27.48;;;18.20;;
21899;SDS011;11114;50.658;12.704;2022-07-23T11:34:51;18.23;;;16.73;;
21899;SDS011;11114;50.658;12.704;2022-07-23T11:37:27;18.50;;;16.85;;
21899;SDS011;11114;50.658;12.704;2022-07-23T11:40:05;18.65;;;17.10;;
21899;SDS011;11114;50.658;12.704;2022-07-23T11:42:38;18.25;;;16.75;;
21899;SDS011;11114;50.658;12.704;2022-07-23T11:45:07;18.77;;;17.23;;
21899;SDS011;11114;50.658;12.704;2022-07-23T11:47:35;18.60;;;17.10;;
21899;SDS011;11114;50.658;12.704;2022-07-23T11:50:03;19.52;;;17.67;;
21899;SDS011;11114;50.658;12.704;2022-07-23T11:52:33;18.75;;;16.98;;
21899;SDS011;11114;50.658;12.704;2022-07-23T11:55:02;20.88;;;19.08;;
21899;SDS011;11114;50.658;12.704;2022-07-23T11:57:33;18.38;;;16.73;;
21899;SDS011;11114;50.658;12.704;2022-07-23T12:00:04;17.52;;;16.13;;
21899;SDS011;11114;50.658;12.704;2022-07-23T12:02:40;19.48;;;17.67;;
21899;SDS011;11114;50.658;12.704;2022-07-23T12:05:15;18.85;;;17.20;;
21899;SDS011;11114;50.658;12.704;2022-07-23T12:07:47;17.30;;;15.95;;
21899;SDS011;11114;50.658;12.704;2022-07-23T12:10:23;16.83;;;15.30;;
21899;SDS011;11114;50.658;12.704;2022-07-23T12:12:58;18.73;;;16.90;;
21899;SDS011;11114;50.658;12.704;2022-07-23T12:15:40;18.30;;;16.80;;
21899;SDS011;11114;50.658;12.704;2022-07-23T12:18:10;17.88;;;16.52;;
21899;SDS011;11114;50.658;12.704;2022-07-23T12:20:41;17.63;;;16.33;;
21899;SDS011;11114;50.658;12.704;2022-07-23T12:23:11;19.75;;;18.08;;
21899;SDS011;11114;50.658;12.704;2022-07-23T12:25:46;17.35;;;16.05;;
21899;SDS011;11114;50.658;12.704;2022-07-23T12:28:16;19.50;;;17.73;;
21899;SDS011;11114;50.658;12.704;2022-07-23T12:30:45;23.60;;;17.63;;
21899;SDS011;11114;50.658;12.704;2022-07-23T12:33:12;18.13;;;16.42;;
21899;SDS011;11114;50.658;12.704;2022-07-23T12:35:43;19.58;;;17.98;;
21899;SDS011;11114;50.658;12.704;2022-07-23T12:38:16;17.67;;;16.17;;
21899;SDS011;11114;50.658;12.704;2022-07-23T12:40:49;17.35;;;15.95;;
21899;SDS011;11114;50.658;12.704;2022-07-23T12:43:27;17.30;;;15.90;;
21899;SDS011;11114;50.658;12.704;2022-07-23T12:46:08;17.10;;;15.60;;
21899;SDS011;11114;50.658;12.704;2022-07-23T12:51:20;19.85;;;17.77;;
21899;SDS011;11114;50.658;12.704;2022-07-23T12:53:57;18.58;;;16.60;;
21899;SDS011;11114;50.658;12.704;2022-07-23T12:56:37;17.85;;;16.45;;
21899;SDS011;11114;50.658;12.704;2022-07-23T12:59:08;18.30;;;16.70;;
21899;SDS011;11114;50.658;12.704;2022-07-23T13:01:40;19.05;;;17.45;;
21899;SDS011;11114;50.658;12.704;2022-07-23T13:04:21;18.45;;;17.02;;
21899;SDS011;11114;50.658;12.704;2022-07-23T13:06:53;21.25;;;19.33;;
21899;SDS011;11114;50.658;12.704;2022-07-23T13:09:26;19.63;;;17.95;;
21899;SDS011;11114;50.658;12.704;2022-07-23T13:11:59;19.13;;;17.52;;
21899;SDS011;11114;50.658;12.704;2022-07-23T13:14:26;20.00;;;18.40;;
21899;SDS011;11114;50.658;12.704;2022-07-23T13:16:54;20.20;;;18.13;;
21899;SDS011;11114;50.658;12.704;2022-07-23T13:21:53;20.13;;;18.45;;
21899;SDS011;11114;50.658;12.704;2022-07-23T13:24:20;21.83;;;19.73;;
21899;SDS011;11114;50.658;12.704;2022-07-23T13:26:47;22.30;;;20.17;;
21899;SDS011;11114;50.658;12.704;2022-07-23T13:29:17;21.02;;;18.23;;
21899;SDS011;11114;50.658;12.704;2022-07-23T13:32:04;35.97;;;18.88;;
21899;SDS011;11114;50.658;12.704;2022-07-23T13:34:38;20.27;;;18.58;;
21899;SDS011;11114;50.658;12.704;2022-07-23T13:37:07;19.77;;;18.13;;
21899;SDS011;11114;50.658;12.704;2022-07-23T13:39:34;19.80;;;18.10;;
21899;SDS011;11114;50.658;12.704;2022-07-23T13:42:04;20.95;;;18.90;;
21899;SDS011;11114;50.658;12.704;2022-07-23T13:44:33;20.42;;;18.92;;
21899;SDS011;11114;50.658;12.704;2022-07-23T13:47:01;19.15;;;17.30;;
21899;SDS011;11114;50.658;12.704;2022-07-23T13:49:30;19.45;;;17.88;;
21899;SDS011;11114;50.658;12.704;2022-07-23T13:51:57;19.83;;;18.10;;
21899;SDS011;11114;50.658;12.704;2022-07-23T13:54:24;20.05;;;18.13;;
21899;SDS011;11114;50.658;12.704;2022-07-23T13:56:54;21.67;;;19.80;;
21899;SDS011;11114;50.658;12.704;2022-07-23T13:59:21;20.73;;;19.08;;
21899;SDS011;11114;50.658;12.704;2022-07-23T14:01:52;20.52;;;18.92;;
21899;SDS011;11114;50.658;12.704;2022-07-23T14:04:39;21.63;;;19.73;;
21899;SDS011;11114;50.658;12.704;2022-07-23T14:07:07;19.35;;;17.85;;
21899;SDS011;11114;50.658;12.704;2022-07-23T14:09:35;21.55;;;19.75;;
21899;SDS011;11114;50.658;12.704;2022-07-23T14:12:02;20.35;;;18.48;;
21899;SDS011;11114;50.658;12.704;2022-07-23T14:14:29;21.80;;;20.10;;
21899;SDS011;11114;50.658;12.704;2022-07-23T14:16:56;24.00;;;21.67;;
21899;SDS011;11114;50.658;12.704;2022-07-23T14:19:24;29.10;;;21.20;;
21899;SDS011;11114;50.658;12.704;2022-07-23T14:21:50;22.27;;;20.38;;
21899;SDS011;11114;50.658;12.704;2022-07-23T14:24:18;25.00;;;22.35;;
21899;SDS011;11114;50.658;12.704;2022-07-23T14:26:47;21.95;;;20.13;;
21899;SDS011;11114;50.658;12.704;2022-07-23T14:29:14;24.35;;;21.58;;
21899;SDS011;11114;50.658;12.704;2022-07-23T14:31:40;21.80;;;19.92;;
21899;SDS011;11114;50.658;12.704;2022-07-23T14:34:08;23.33;;;21.02;;
21899;SDS011;11114;50.658;12.704;2022-07-23T14:36:35;21.90;;;20.02;;
21899;SDS011;11114;50.658;12.704;2022-07-23T14:39:04;25.40;;;22.03;;
21899;SDS011;11114;50.658;12.704;2022-07-23T14:41:33;23.95;;;21.75;;
21899;SDS011;11114;50.658;12.704;2022-07-23T14:44:01;26.05;;;23.48;;
21899;SDS011;11114;50.658;12.704;2022-07-23T14:46:31;23.13;;;21.08;;
21899;SDS011;11114;50.658;12.704;2022-07-23T14:48:58;22.67;;;20.67;;
21899;SDS011;11114;50.658;12.704;2022-07-23T14:51:26;22.52;;;20.73;;
21899;SDS011;11114;50.658;12.704;2022-07-23T14:53:54;25.35;;;22.95;;
21899;SDS011;11114;50.658;12.704;2022-07-23T14:56:21;24.00;;;22.00;;